Terminal Aerodrome Forecast
Issued by NWS

Home | Current Version | Previous Version | Text Only | Print | Product List | Glossary On
Versions: 1 2 3 4 5 6 7 8 9 10 11 12 13 14 15 16 17 18
575
FTUS43 KPAH 251131
TAFCGI
TAF
KCGI 251131Z 2512/2612 VRB05KT P6SM SKC
     FM251400 18010G16KT P6SM SCT250
     FM251700 18015G23KT P6SM SCT250
     FM260000 18010KT P6SM BKN250
     FM260800 18010KT P6SM BKN025=

USA.gov is the U.S. government's official web portal to all federal, state and local government web resources and services.